Crystal Springs, North Dakota
Current Conditions -  °F | °C
As of 6:56 AM on Tuesday 21 Oct 2014 (Local Time) from KJMS Reporting Station
Clear Clear  
Wind Chill:   Ceiling: Unl
Heat Index:   Visibility: 10mi
Dew Point:   Wind: 15mph
Humidity: 73%   Direction: 140°SE
Pressure: 29.95"   Gusts: NA
Location:  46.8928°N, 99.3208°W
Report Text: KJMS 211156Z AUTO 14013KT 10SM CLR 08/03 A2995 RMK AO2 SLP148 T00780033 10083 20061 56012
Loading
Personal Weather Stations






























Interactive Weather Map
Tropical Storm Tracking
New forecast layout! Learn more

10-Day Weather Forecast

Advertisements
Track Severe Weather on mobile